createdAt,value
2022-08-04T00:01:42.255Z,45.28
2022-08-04T00:04:15.184Z,45.55
2022-08-04T00:06:51.718Z,45.58
2022-08-04T00:09:30.796Z,46.11
2022-08-04T00:12:00.001Z,45.76
2022-08-04T00:14:30.409Z,45.63
2022-08-04T00:16:58.455Z,45.77
2022-08-04T00:19:31.758Z,45.62
2022-08-04T00:22:02.554Z,45.99
2022-08-04T00:24:33.242Z,46.38
2022-08-04T00:27:01.553Z,45.94
2022-08-04T00:29:30.172Z,46.57
2022-08-04T00:31:58.358Z,46.10
2022-08-04T00:34:27.714Z,46.52
2022-08-04T00:36:56.895Z,46.68
2022-08-04T00:39:25.661Z,46.79
2022-08-04T00:42:12.496Z,45.40
2022-08-04T00:44:48.334Z,45.59
2022-08-04T00:47:30.197Z,45.85
2022-08-04T00:50:10.478Z,45.92
2022-08-04T00:52:49.513Z,45.83
2022-08-04T00:55:54.862Z,45.77
2022-08-04T00:58:30.996Z,46.58
2022-08-04T01:01:02.589Z,46.68
2022-08-04T01:03:52.662Z,47.29
2022-08-04T01:06:29.194Z,46.76
2022-08-04T01:09:07.434Z,47.18
2022-08-04T01:11:56.509Z,47.86
2022-08-04T01:14:44.810Z,48.15
2022-08-04T01:17:21.346Z,47.67
2022-08-04T01:20:10.809Z,47.46
2022-08-04T01:23:00.785Z,47.65
2022-08-04T01:25:42.881Z,47.30
2022-08-04T01:28:28.233Z,46.35
2022-08-04T01:30:59.410Z,46.15
2022-08-04T01:33:29.952Z,46.20
2022-08-04T01:35:59.459Z,45.27
2022-08-04T01:38:30.901Z,44.58
2022-08-04T01:41:01.897Z,44.88
2022-08-04T01:43:31.284Z,44.09
2022-08-04T01:46:02.200Z,43.88
2022-08-04T01:48:31.159Z,43.74
2022-08-04T01:51:02.137Z,43.47
2022-08-04T01:53:33.440Z,43.67
2022-08-04T01:56:02.889Z,43.60
2022-08-04T01:58:32.371Z,43.75
2022-08-04T02:01:05.241Z,43.87
2022-08-04T02:04:20.332Z,43.72
2022-08-04T02:06:33.006Z,43.48
2022-08-04T02:09:10.325Z,42.95
2022-08-04T02:11:38.683Z,43.32
2022-08-04T02:14:13.099Z,43.17
2022-08-04T02:16:46.408Z,43.02
2022-08-04T02:19:29.112Z,42.96
2022-08-04T02:21:59.070Z,43.47
2022-08-04T02:24:29.081Z,43.59
2022-08-04T02:26:58.053Z,43.21
2022-08-04T02:29:33.261Z,43.38
2022-08-04T02:32:05.700Z,43.39
2022-08-04T02:34:39.169Z,43.56
2022-08-04T02:37:07.704Z,43.57
2022-08-04T02:39:48.133Z,43.73
2022-08-04T02:42:19.326Z,43.69
2022-08-04T02:44:50.866Z,44.19
2022-08-04T02:47:22.617Z,43.98
2022-08-04T02:49:52.892Z,44.47
2022-08-04T02:52:22.111Z,44.58
2022-08-04T02:54:55.775Z,44.52
2022-08-04T02:57:26.822Z,44.46
2022-08-04T03:00:05.759Z,45.21
2022-08-04T03:02:43.931Z,45.29
2022-08-04T03:05:15.604Z,45.54
2022-08-04T03:08:08.885Z,45.35
2022-08-04T03:11:15.149Z,45.90
2022-08-04T03:14:19.941Z,45.88
2022-08-04T03:17:20.631Z,46.47
2022-08-04T03:20:04.161Z,45.71
2022-08-04T03:23:12.001Z,45.98
2022-08-04T03:25:57.525Z,45.93
2022-08-04T03:29:01.364Z,45.99
2022-08-04T03:31:59.526Z,46.39
2022-08-04T03:34:38.601Z,46.34
2022-08-04T03:37:39.831Z,47.24
2022-08-04T03:40:29.464Z,46.86
2022-08-04T03:43:57.921Z,47.12
2022-08-04T03:46:49.761Z,47.21
2022-08-04T03:49:42.325Z,47.14
2022-08-04T03:52:32.738Z,47.52
2022-08-04T03:55:45.654Z,47.67
2022-08-04T03:58:49.967Z,48.01
2022-08-04T04:02:03.026Z,47.52
2022-08-04T04:04:55.189Z,48.11
2022-08-04T04:07:52.887Z,48.34
2022-08-04T04:10:48.533Z,48.42
2022-08-04T04:13:37.263Z,48.43
2022-08-04T04:16:22.661Z,48.33
2022-08-04T04:19:03.226Z,48.53
2022-08-04T04:21:41.037Z,48.92
2022-08-04T04:24:34.099Z,48.78
2022-08-04T04:27:11.578Z,48.98
2022-08-04T04:29:57.166Z,49.68
2022-08-04T04:32:31.798Z,49.66
2022-08-04T04:35:12.889Z,50.02
2022-08-04T04:37:53.569Z,49.89
2022-08-04T04:40:32.564Z,50.41
2022-08-04T04:43:13.728Z,50.27
2022-08-04T04:45:51.221Z,50.47
2022-08-04T04:48:29.313Z,50.55
2022-08-04T04:51:03.708Z,50.63
2022-08-04T04:53:50.878Z,50.86
2022-08-04T04:56:31.649Z,50.24
2022-08-04T04:59:00.408Z,50.83
2022-08-04T05:02:06.256Z,51.07
2022-08-04T05:04:57.578Z,51.17
2022-08-04T05:07:53.302Z,51.30
2022-08-04T05:10:32.220Z,51.38
2022-08-04T05:14:34.836Z,51.36
2022-08-04T05:15:59.361Z,51.23
2022-08-04T05:18:32.777Z,51.39
2022-08-04T05:21:10.001Z,51.34
2022-08-04T05:23:39.689Z,51.33
2022-08-04T05:26:12.797Z,51.15
2022-08-04T05:28:42.840Z,51.17
2022-08-04T05:31:13.215Z,50.37
2022-08-04T05:33:54.706Z,50.10
2022-08-04T05:36:40.489Z,49.58
2022-08-04T05:39:13.445Z,49.33
2022-08-04T05:41:45.204Z,49.54
2022-08-04T05:44:14.805Z,48.97
2022-08-04T05:46:44.426Z,48.85
2022-08-04T05:49:23.519Z,49.21
2022-08-04T05:51:52.424Z,48.85
2022-08-04T05:54:22.231Z,48.41
2022-08-04T05:56:51.032Z,48.27
2022-08-04T05:59:20.402Z,48.71
2022-08-04T06:01:56.474Z,48.21
2022-08-04T06:04:29.531Z,47.70
2022-08-04T06:06:57.552Z,47.52
2022-08-04T06:09:25.565Z,47.40
2022-08-04T06:12:00.577Z,46.85
2022-08-04T06:14:35.355Z,46.49
2022-08-04T06:18:32.270Z,46.28
2022-08-04T06:20:18.262Z,45.75
2022-08-04T06:22:48.015Z,45.63
2022-08-04T06:25:19.171Z,46.11
2022-08-04T06:27:47.152Z,45.54
2022-08-04T06:30:16.001Z,45.50
2022-08-04T06:33:04.355Z,44.86
2022-08-04T06:35:34.760Z,44.30
2022-08-04T06:38:03.363Z,44.11
2022-08-04T06:40:33.891Z,43.74
2022-08-04T06:43:03.759Z,43.83
2022-08-04T06:45:34.617Z,43.84
2022-08-04T06:48:03.136Z,43.25
2022-08-04T06:51:28.656Z,42.98
2022-08-04T06:53:20.976Z,42.67
2022-08-04T06:55:50.663Z,42.70
2022-08-04T06:58:21.659Z,42.28
2022-08-04T07:00:50.106Z,42.41
2022-08-04T07:03:19.619Z,42.36
2022-08-04T07:05:48.157Z,42.54
2022-08-04T07:08:16.306Z,42.00
2022-08-04T07:10:46.351Z,41.57
2022-08-04T07:13:14.806Z,41.32
2022-08-04T07:15:46.245Z,40.84
2022-08-04T07:18:14.602Z,40.50
2022-08-04T07:20:43.756Z,40.35
2022-08-04T07:23:13.798Z,40.02
2022-08-04T07:25:59.492Z,39.89
2022-08-04T07:28:31.451Z,38.94
2022-08-04T07:31:00.148Z,38.95
2022-08-04T07:33:29.179Z,38.89
2022-08-04T07:36:09.548Z,38.47
2022-08-04T07:38:48.590Z,37.15
2022-08-04T07:41:39.366Z,37.22
2022-08-04T07:44:08.799Z,36.59
2022-08-04T07:46:37.887Z,36.11
2022-08-04T07:49:06.520Z,35.06
2022-08-04T07:51:36.901Z,34.55
2022-08-04T07:54:07.753Z,34.89
2022-08-04T07:56:38.689Z,34.47
2022-08-04T07:59:06.910Z,34.27
2022-08-04T08:01:36.420Z,34.23
2022-08-04T08:04:07.541Z,33.29
2022-08-04T08:06:42.732Z,33.34
2022-08-04T08:09:14.970Z,32.73
2022-08-04T08:12:35.762Z,32.28
2022-08-04T08:14:35.957Z,32.58
2022-08-04T08:17:04.316Z,31.46
2022-08-04T08:19:33.547Z,31.84
2022-08-04T08:22:02.536Z,31.82
2022-08-04T08:24:31.038Z,31.86
2022-08-04T08:27:01.456Z,31.68
2022-08-04T08:29:30.589Z,31.70
2022-08-04T08:32:05.364Z,30.58
2022-08-04T08:34:35.814Z,30.72
2022-08-04T08:37:08.536Z,30.73
2022-08-04T08:39:41.407Z,30.00
2022-08-04T08:42:38.622Z,30.09
2022-08-04T08:45:26.477Z,30.13
2022-08-04T08:48:23.542Z,29.76
2022-08-04T08:51:20.033Z,29.93
2022-08-04T08:53:59.386Z,29.77
2022-08-04T08:56:35.731Z,29.57
2022-08-04T08:59:20.370Z,29.75
2022-08-04T09:02:00.383Z,28.93
2022-08-04T09:04:55.832Z,28.66
2022-08-04T09:07:59.063Z,28.30
2022-08-04T09:10:33.498Z,28.13
2022-08-04T09:13:05.785Z,28.75
2022-08-04T09:15:39.388Z,28.46
2022-08-04T09:18:11.648Z,28.32
2022-08-04T09:20:46.922Z,27.37
2022-08-04T09:23:22.537Z,26.81
2022-08-04T09:25:55.735Z,26.18
2022-08-04T09:28:52.418Z,26.20
2022-08-04T09:31:18.721Z,26.55
2022-08-04T09:33:52.679Z,25.96
2022-08-04T09:36:29.137Z,26.01
2022-08-04T09:39:10.910Z,25.91
2022-08-04T09:41:52.687Z,25.67
2022-08-04T09:44:50.229Z,26.11
2022-08-04T09:47:22.418Z,26.55
2022-08-04T09:49:54.868Z,26.50
2022-08-04T09:52:36.953Z,26.07
2022-08-04T09:55:10.793Z,26.18
2022-08-04T09:57:46.677Z,26.29
2022-08-04T10:00:17.134Z,25.54
2022-08-04T10:03:09.876Z,26.34
2022-08-04T10:05:46.208Z,24.84
2022-08-04T10:08:28.395Z,25.07
2022-08-04T10:11:01.387Z,25.29
2022-08-04T10:13:40.857Z,25.58
2022-08-04T10:16:23.894Z,24.96
2022-08-04T10:19:07.710Z,24.98
2022-08-04T10:21:59.028Z,25.86
2022-08-04T10:24:34.616Z,25.67
2022-08-04T10:27:07.124Z,25.13
2022-08-04T10:29:40.447Z,24.13
2022-08-04T10:32:13.360Z,24.08
2022-08-04T10:34:46.009Z,25.03
2022-08-04T10:37:21.382Z,24.85
2022-08-04T10:40:13.996Z,24.01
2022-08-04T10:42:49.665Z,24.82
2022-08-04T10:45:20.763Z,23.78
2022-08-04T10:47:55.785Z,24.70
2022-08-04T10:50:26.514Z,23.53
2022-08-04T10:53:00.298Z,23.33
2022-08-04T10:56:07.379Z,23.47
2022-08-04T10:58:47.468Z,23.57
2022-08-04T11:01:59.694Z,23.82
2022-08-04T11:04:27.209Z,22.46
2022-08-04T11:06:58.146Z,22.38
2022-08-04T11:09:26.524Z,23.34
2022-08-04T11:11:57.021Z,22.78
2022-08-04T11:14:35.058Z,22.61
2022-08-04T11:17:08.041Z,22.40
2022-08-04T11:19:45.102Z,22.63
2022-08-04T11:22:25.040Z,21.73
2022-08-04T11:24:58.629Z,21.73
2022-08-04T11:27:30.983Z,21.78
2022-08-04T11:30:04.920Z,21.38
2022-08-04T11:32:37.370Z,21.41
2022-08-04T11:35:11.504Z,21.59
2022-08-04T11:37:47.941Z,21.99
2022-08-04T11:40:22.769Z,21.67
2022-08-04T11:42:55.110Z,21.23
2022-08-04T11:45:29.582Z,21.19
2022-08-04T11:48:01.133Z,21.46
2022-08-04T11:50:34.566Z,20.52
2022-08-04T11:53:05.024Z,20.69
2022-08-04T11:55:34.242Z,20.36
2022-08-04T11:58:23.920Z,20.69
2022-08-04T12:00:59.122Z,20.35
2022-08-04T12:03:37.557Z,20.85
2022-08-04T12:06:15.369Z,20.99
2022-08-04T12:08:56.159Z,20.80
2022-08-04T12:11:33.697Z,19.92
2022-08-04T12:14:09.722Z,20.27
2022-08-04T12:16:42.511Z,20.28
2022-08-04T12:19:17.961Z,20.55
2022-08-04T12:21:53.374Z,20.24
2022-08-04T12:24:29.788Z,20.57
2022-08-04T12:27:00.961Z,20.71
2022-08-04T12:29:32.913Z,20.08
2022-08-04T12:32:06.197Z,20.68
2022-08-04T12:34:36.789Z,20.29
2022-08-04T12:37:08.452Z,20.04
2022-08-04T12:40:29.370Z,20.36
2022-08-04T12:42:33.439Z,20.40
2022-08-04T12:45:06.123Z,20.33
2022-08-04T12:47:37.023Z,20.77
2022-08-04T12:50:07.109Z,20.63
2022-08-04T12:55:35.091Z,20.07
2022-08-04T12:58:05.053Z,20.43
2022-08-04T13:00:41.407Z,20.37
2022-08-04T13:03:13.352Z,19.92
2022-08-04T13:05:42.548Z,20.13
2022-08-04T13:08:12.123Z,19.96
2022-08-04T13:10:44.590Z,20.35
2022-08-04T13:13:19.121Z,19.36
2022-08-04T13:15:58.000Z,19.93
2022-08-04T13:18:30.282Z,19.10
2022-08-04T13:21:21.118Z,19.34
2022-08-04T13:24:10.704Z,19.57
2022-08-04T13:26:54.706Z,19.49
2022-08-04T13:30:00.573Z,19.59
2022-08-04T13:32:18.397Z,19.10
2022-08-04T13:34:49.550Z,19.41
2022-08-04T13:37:23.202Z,19.64
2022-08-04T13:39:55.765Z,19.13
2022-08-04T13:42:27.228Z,19.17
2022-08-04T13:44:56.612Z,19.32
2022-08-04T13:47:28.580Z,20.05
2022-08-04T13:50:16.123Z,19.84
2022-08-04T13:52:45.083Z,19.97
2022-08-04T13:55:27.526Z,20.09
2022-08-04T13:58:01.103Z,20.01
2022-08-04T14:00:41.741Z,20.49
2022-08-04T14:03:23.411Z,20.23
2022-08-04T14:06:15.923Z,19.99
2022-08-04T14:08:48.083Z,19.62
2022-08-04T14:12:06.404Z,20.17
2022-08-04T14:14:16.660Z,20.54
2022-08-04T14:17:06.702Z,20.15
2022-08-04T14:19:55.232Z,19.74
2022-08-04T14:22:34.662Z,19.96
2022-08-04T14:25:05.581Z,20.13
2022-08-04T14:27:46.558Z,20.01
2022-08-04T14:30:27.560Z,19.61
2022-08-04T14:32:57.867Z,19.77
2022-08-04T14:35:26.422Z,20.14
2022-08-04T14:37:55.399Z,20.30
2022-08-04T14:40:30.726Z,20.71
2022-08-04T14:42:59.885Z,20.23
2022-08-04T14:45:34.321Z,20.17
2022-08-04T14:48:02.783Z,19.75
2022-08-04T14:50:39.500Z,20.12
2022-08-04T14:53:09.570Z,20.64
2022-08-04T14:55:38.455Z,19.67
2022-08-04T14:58:36.946Z,19.95
2022-08-04T15:00:58.812Z,20.53
2022-08-04T15:03:27.808Z,20.26
2022-08-04T15:06:04.301Z,20.51
2022-08-04T15:08:33.980Z,20.62
2022-08-04T15:11:03.543Z,20.39
2022-08-04T15:13:32.379Z,20.55
2022-08-04T15:16:07.138Z,20.86
2022-08-04T15:18:38.771Z,21.52
2022-08-04T15:21:07.710Z,20.55
2022-08-04T15:23:39.206Z,21.30
2022-08-04T15:26:11.059Z,21.22
2022-08-04T15:28:40.782Z,20.82
2022-08-04T15:32:04.275Z,22.04
2022-08-04T15:33:59.413Z,21.80
2022-08-04T15:36:34.238Z,21.49
2022-08-04T15:39:11.030Z,21.53
2022-08-04T15:41:46.322Z,21.73
2022-08-04T15:44:46.201Z,21.01
2022-08-04T15:47:16.934Z,20.65
2022-08-04T15:49:47.652Z,20.84
2022-08-04T15:52:18.316Z,21.59
2022-08-04T15:54:52.348Z,21.20
2022-08-04T15:58:00.266Z,21.39
2022-08-04T16:00:28.736Z,21.30
2022-08-04T16:02:58.308Z,21.27
2022-08-04T16:05:39.560Z,21.26
2022-08-04T16:08:15.415Z,21.77
2022-08-04T16:10:47.923Z,21.12
2022-08-04T16:13:19.847Z,22.25
2022-08-04T16:15:53.645Z,21.69
2022-08-04T16:18:41.161Z,21.70
2022-08-04T16:21:21.279Z,22.35
2022-08-04T16:24:15.273Z,21.86
2022-08-04T16:26:54.487Z,21.75
2022-08-04T16:29:31.219Z,22.26
2022-08-04T16:32:19.874Z,21.32
2022-08-04T16:34:56.439Z,22.42
2022-08-04T16:37:26.701Z,22.46
2022-08-04T16:40:43.754Z,22.26
2022-08-04T16:43:14.012Z,22.17
2022-08-04T16:45:50.755Z,21.70
2022-08-04T16:48:20.085Z,22.05
2022-08-04T16:51:08.086Z,22.62
2022-08-04T16:54:04.125Z,21.54
2022-08-04T16:56:33.519Z,22.03
2022-08-04T16:59:07.386Z,22.72
2022-08-04T17:01:35.748Z,23.41
2022-08-04T17:04:07.999Z,22.94
2022-08-04T17:06:39.921Z,23.29
2022-08-04T17:09:11.912Z,22.80
2022-08-04T17:11:40.582Z,22.61
2022-08-04T17:14:09.079Z,22.88
2022-08-04T17:16:39.860Z,23.40
2022-08-04T17:19:24.179Z,22.99
2022-08-04T17:22:02.934Z,23.66
2022-08-04T17:24:32.506Z,23.61
2022-08-04T17:27:00.493Z,22.81
2022-08-04T17:29:43.158Z,23.00
2022-08-04T17:32:17.397Z,23.51
2022-08-04T17:34:49.053Z,23.58
2022-08-04T17:37:40.037Z,24.05
2022-08-04T17:40:10.368Z,23.61
2022-08-04T17:42:41.423Z,23.36
2022-08-04T17:45:50.303Z,23.82
2022-08-04T17:48:00.627Z,24.05
2022-08-04T17:50:35.626Z,23.86
2022-08-04T17:53:11.647Z,23.60
2022-08-04T17:55:42.774Z,24.03
2022-08-04T17:58:20.529Z,24.58
2022-08-04T18:00:52.089Z,25.30
2022-08-04T18:03:30.582Z,25.12
2022-08-04T18:06:03.403Z,25.48
2022-08-04T18:08:38.514Z,25.41
2022-08-04T18:11:22.063Z,25.71
2022-08-04T18:13:54.643Z,25.77
2022-08-04T18:16:25.332Z,26.51
2022-08-04T18:19:11.379Z,27.59
2022-08-04T18:21:45.535Z,27.83
2022-08-04T18:24:15.928Z,28.01
2022-08-04T18:26:45.868Z,28.73
2022-08-04T18:29:31.140Z,28.40
2022-08-04T18:32:00.305Z,28.81
2022-08-04T18:34:28.676Z,29.17
2022-08-04T18:36:57.465Z,29.02
2022-08-04T18:40:28.004Z,29.05
2022-08-04T18:42:18.041Z,29.47
2022-08-04T18:44:53.109Z,29.71
2022-08-04T18:47:23.173Z,29.69
2022-08-04T18:51:00.122Z,30.26
2022-08-04T18:52:46.834Z,30.96
2022-08-04T18:55:57.589Z,31.30
2022-08-04T18:58:07.132Z,31.76
2022-08-04T19:00:45.884Z,32.15
2022-08-04T19:03:16.505Z,31.97
2022-08-04T19:05:51.850Z,32.23
2022-08-04T19:08:34.793Z,32.29
2022-08-04T19:11:35.217Z,31.51
2022-08-04T19:13:58.895Z,32.06
2022-08-04T19:16:28.423Z,32.22
2022-08-04T19:18:56.670Z,32.22
2022-08-04T19:22:01.035Z,32.60
2022-08-04T19:24:32.896Z,33.29
2022-08-04T19:27:07.443Z,32.79
2022-08-04T19:29:40.584Z,32.80
2022-08-04T19:32:14.816Z,33.53
2022-08-04T19:34:45.809Z,33.95
2022-08-04T19:37:56.039Z,34.54
2022-08-04T19:40:04.807Z,34.49
2022-08-04T19:42:34.773Z,35.03
2022-08-04T19:45:03.048Z,35.13
2022-08-04T19:48:16.011Z,35.79
2022-08-04T19:50:19.343Z,35.85
2022-08-04T19:52:52.043Z,35.73
2022-08-04T19:55:22.261Z,36.17
2022-08-04T19:57:53.063Z,36.08
2022-08-04T20:00:32.891Z,36.48
2022-08-04T20:03:02.661Z,36.94
2022-08-04T20:05:52.895Z,36.62
2022-08-04T20:08:19.440Z,37.06
2022-08-04T20:10:51.819Z,36.58
2022-08-04T20:13:21.938Z,35.59
2022-08-04T20:15:57.457Z,34.71
2022-08-04T20:18:36.804Z,34.98
2022-08-04T20:21:19.107Z,35.28
2022-08-04T20:23:52.561Z,35.00
2022-08-04T20:26:22.074Z,34.89
2022-08-04T20:28:54.297Z,35.96
2022-08-04T20:31:24.419Z,36.59
2022-08-04T20:33:59.749Z,36.98
2022-08-04T20:36:27.655Z,37.21
2022-08-04T20:38:56.234Z,37.55
2022-08-04T20:41:24.199Z,37.64
2022-08-04T20:43:53.587Z,37.74
2022-08-04T20:46:28.515Z,38.28
2022-08-04T20:48:58.377Z,37.84
2022-08-04T20:51:31.829Z,37.93
2022-08-04T20:54:02.420Z,37.66
2022-08-04T20:56:31.733Z,37.89
2022-08-04T20:59:01.703Z,38.49
2022-08-04T21:01:36.031Z,38.17
2022-08-04T21:04:28.209Z,37.72
2022-08-04T21:06:57.982Z,37.77
2022-08-04T21:09:36.899Z,38.82
2022-08-04T21:12:07.727Z,38.37
2022-08-04T21:14:37.188Z,38.72
2022-08-04T21:17:07.121Z,38.66
2022-08-04T21:19:37.835Z,39.36
2022-08-04T21:22:10.245Z,39.03
2022-08-04T21:24:39.371Z,39.74
2022-08-04T21:27:09.815Z,39.33
2022-08-04T21:29:39.595Z,39.17
2022-08-04T21:32:09.833Z,38.97
2022-08-04T21:34:39.814Z,38.60
2022-08-04T21:37:09.765Z,39.10
2022-08-04T21:39:50.640Z,39.21
2022-08-04T21:42:42.472Z,39.80
2022-08-04T21:45:13.410Z,39.36
2022-08-04T21:47:49.114Z,40.11
2022-08-04T21:50:20.016Z,40.11
2022-08-04T21:52:49.221Z,40.55
2022-08-04T21:55:18.890Z,40.65
2022-08-04T21:57:49.522Z,40.61
2022-08-04T22:00:20.228Z,41.20
2022-08-04T22:02:53.237Z,41.39
2022-08-04T22:05:21.919Z,41.45
2022-08-04T22:07:51.731Z,41.37
2022-08-04T22:13:08.504Z,40.13
2022-08-04T22:16:04.905Z,40.38
2022-08-04T22:18:27.562Z,40.12
2022-08-04T22:20:56.182Z,40.47
2022-08-04T22:26:26.659Z,40.75
2022-08-04T22:28:56.073Z,40.53
2022-08-04T22:31:26.516Z,40.76
2022-08-04T22:34:14.998Z,40.99
2022-08-04T22:36:47.303Z,41.27
2022-08-04T22:39:16.615Z,41.32
2022-08-04T22:41:48.668Z,41.70
2022-08-04T22:44:32.460Z,41.83
2022-08-04T22:47:03.898Z,41.94
2022-08-04T22:49:32.660Z,41.93
2022-08-04T22:52:10.050Z,42.33
2022-08-04T22:54:46.620Z,41.83
2022-08-04T22:57:14.873Z,42.84
2022-08-04T22:59:43.508Z,42.75
2022-08-04T23:02:13.139Z,42.76
2022-08-04T23:04:42.820Z,42.81
2022-08-04T23:07:12.386Z,42.90
2022-08-04T23:09:50.532Z,42.93
2022-08-04T23:12:27.574Z,42.82
2022-08-04T23:14:57.218Z,42.60
2022-08-04T23:17:28.850Z,42.70
2022-08-04T23:19:59.185Z,42.70
2022-08-04T23:22:37.520Z,42.94
2022-08-04T23:25:15.780Z,43.77
2022-08-04T23:27:50.449Z,44.45
2022-08-04T23:30:21.879Z,44.67
2022-08-04T23:32:57.859Z,44.33
2022-08-04T23:35:25.833Z,43.84
2022-08-04T23:37:56.984Z,43.71
2022-08-04T23:40:32.722Z,44.96
2022-08-04T23:43:12.355Z,45.28
2022-08-04T23:46:06.646Z,45.22
2022-08-04T23:48:36.258Z,45.67
2022-08-04T23:51:14.435Z,46.25
2022-08-04T23:54:02.083Z,45.57
2022-08-04T23:56:31.935Z,45.44
2022-08-04T23:59:00.523Z,46.16
